createdAt,value
2019-02-04T00:00:40.021Z,1017.40
2019-02-04T00:01:39.997Z,1017.42
2019-02-04T00:02:39.845Z,1017.40
2019-02-04T00:03:40.009Z,1017.40
2019-02-04T00:04:39.670Z,1017.42
2019-02-04T00:05:39.584Z,1017.42
2019-02-04T00:06:39.496Z,1017.45
2019-02-04T00:07:39.409Z,1017.45
2019-02-04T00:08:39.320Z,1017.45
2019-02-04T00:09:39.234Z,1017.42
2019-02-04T00:10:39.136Z,1017.47
2019-02-04T00:11:39.046Z,1017.46
2019-02-04T00:12:38.959Z,1017.45
2019-02-04T00:13:38.871Z,1017.44
2019-02-04T00:14:38.784Z,1017.45
2019-02-04T00:15:38.697Z,1017.41
2019-02-04T00:16:40.843Z,1017.43
2019-02-04T00:17:38.522Z,1017.45
2019-02-04T00:18:38.441Z,1017.44
2019-02-04T00:19:38.347Z,1017.47
2019-02-04T00:20:38.260Z,1017.51
2019-02-04T00:21:38.161Z,1017.52
2019-02-04T00:22:38.074Z,1017.53
2019-02-04T00:23:38.237Z,1017.51
2019-02-04T00:24:37.910Z,1017.49
2019-02-04T00:25:37.815Z,1017.52
2019-02-04T00:26:37.722Z,1017.49
2019-02-04T00:27:37.636Z,1017.54
2019-02-04T00:28:37.547Z,1017.56
2019-02-04T00:29:37.461Z,1017.57
2019-02-04T00:30:37.374Z,1017.58
2019-02-04T00:31:37.273Z,1017.58
2019-02-04T00:32:37.188Z,1017.59
2019-02-04T00:33:37.110Z,1017.56
2019-02-04T00:34:37.012Z,1017.63
2019-02-04T00:35:36.923Z,1017.66
2019-02-04T00:36:36.837Z,1017.65
2019-02-04T00:37:36.748Z,1017.62
2019-02-04T00:38:36.962Z,1017.64
2019-02-04T00:39:36.575Z,1017.64
2019-02-04T00:40:36.486Z,1017.68
2019-02-04T00:41:36.388Z,1017.70
2019-02-04T00:42:36.311Z,1017.66
2019-02-04T00:43:36.214Z,1017.72
2019-02-04T00:44:36.124Z,1017.70
2019-02-04T00:45:36.038Z,1017.75
2019-02-04T00:46:35.949Z,1017.76
2019-02-04T00:47:35.862Z,1017.78
2019-02-04T00:48:36.025Z,1017.78
2019-02-04T00:49:35.690Z,1017.80
2019-02-04T00:50:35.589Z,1017.80
2019-02-04T00:51:35.513Z,1017.87
2019-02-04T00:52:35.417Z,1017.90
2019-02-04T00:53:35.326Z,1017.91
2019-02-04T00:54:35.240Z,1017.93
2019-02-04T00:55:35.151Z,1017.92
2019-02-04T00:56:35.064Z,1017.94
2019-02-04T00:57:34.975Z,1017.94
2019-02-04T00:58:35.189Z,1018.00
2019-02-04T00:59:34.813Z,1017.98
2019-02-04T01:00:34.714Z,1018.04
2019-02-04T01:01:34.614Z,1018.07
2019-02-04T01:02:34.529Z,1018.03
2019-02-04T01:03:34.439Z,1018.09
2019-02-04T01:04:34.351Z,1018.12
2019-02-04T01:05:34.266Z,1018.10
2019-02-04T01:06:34.180Z,1018.15
2019-02-04T01:07:34.091Z,1018.14
2019-02-04T01:08:34.002Z,1018.21
2019-02-04T01:09:33.915Z,1018.14
2019-02-04T01:10:33.817Z,1018.18
2019-02-04T01:11:33.727Z,1018.23
2019-02-04T01:12:33.641Z,1018.23
2019-02-04T01:13:33.553Z,1018.22
2019-02-04T01:14:33.467Z,1018.21
2019-02-04T01:15:33.378Z,1018.21
2019-02-04T01:16:33.290Z,1018.22
2019-02-04T01:17:33.207Z,1018.21
2019-02-04T01:18:33.104Z,1018.22
2019-02-04T01:19:33.016Z,1018.23
2019-02-04T01:20:32.928Z,1018.21
2019-02-04T01:21:32.842Z,1018.25
2019-02-04T01:22:32.753Z,1018.25
2019-02-04T01:23:32.667Z,1018.29
2019-02-04T01:24:32.581Z,1018.31
2019-02-04T01:25:32.492Z,1018.31
2019-02-04T01:26:32.403Z,1018.32
2019-02-04T01:27:32.305Z,1018.33
2019-02-04T01:28:32.220Z,1018.34
2019-02-04T01:29:32.130Z,1018.35
2019-02-04T01:30:32.042Z,1018.38
2019-02-04T01:31:31.955Z,1018.38
2019-02-04T01:32:31.867Z,1018.42
2019-02-04T01:33:31.780Z,1018.44
2019-02-04T01:34:31.693Z,1018.43
2019-02-04T01:35:31.606Z,1018.45
2019-02-04T01:36:31.519Z,1018.41
2019-02-04T01:37:31.420Z,1018.50
2019-02-04T01:38:31.331Z,1018.52
2019-02-04T01:39:31.243Z,1018.57
2019-02-04T01:40:31.155Z,1018.58
2019-02-04T01:41:33.163Z,1018.57
2019-02-04T01:42:30.993Z,1018.55
2019-02-04T01:43:30.893Z,1018.56
2019-02-04T01:44:30.807Z,1018.56
2019-02-04T01:45:30.721Z,1018.60
2019-02-04T01:46:30.622Z,1018.64
2019-02-04T01:47:30.531Z,1018.61
2019-02-04T01:48:30.444Z,1018.65
2019-02-04T01:49:30.355Z,1018.67
2019-02-04T01:50:30.271Z,1018.67
2019-02-04T01:51:30.195Z,1018.70
2019-02-04T01:52:30.099Z,1018.64
2019-02-04T01:53:30.006Z,1018.69
2019-02-04T01:54:29.907Z,1018.72
2019-02-04T01:55:29.837Z,1018.73
2019-02-04T01:56:29.732Z,1018.68
2019-02-04T01:57:29.645Z,1018.74
2019-02-04T01:58:29.556Z,1018.75
2019-02-04T01:59:29.471Z,1018.75
2019-02-04T02:00:29.397Z,1018.76
2019-02-04T02:01:29.295Z,1018.79
2019-02-04T02:02:29.207Z,1018.81
2019-02-04T02:03:29.109Z,1018.82
2019-02-04T02:04:29.020Z,1018.85
2019-02-04T02:05:28.933Z,1018.86
2019-02-04T02:06:28.847Z,1018.83
2019-02-04T02:07:28.758Z,1018.90
2019-02-04T02:08:28.672Z,1018.89
2019-02-04T02:09:28.584Z,1018.89
2019-02-04T02:10:28.498Z,1018.91
2019-02-04T02:11:28.397Z,1018.92
2019-02-04T02:12:28.309Z,1018.87
2019-02-04T02:13:28.222Z,1018.90
2019-02-04T02:14:28.137Z,1018.88
2019-02-04T02:15:28.047Z,1018.89
2019-02-04T02:16:27.959Z,1018.87
2019-02-04T02:17:27.872Z,1018.92
2019-02-04T02:18:27.797Z,1018.93
2019-02-04T02:19:27.697Z,1018.96
2019-02-04T02:20:27.604Z,1018.96
2019-02-04T02:21:27.512Z,1018.99
2019-02-04T02:22:27.423Z,1018.96
2019-02-04T02:23:27.334Z,1018.94
2019-02-04T02:24:27.247Z,1018.98
2019-02-04T02:25:27.164Z,1018.99
2019-02-04T02:26:27.074Z,1019.01
2019-02-04T02:27:26.985Z,1019.01
2019-02-04T02:28:26.896Z,1019.00
2019-02-04T02:29:26.798Z,1019.04
2019-02-04T02:30:26.727Z,1019.02
2019-02-04T02:31:26.624Z,1019.03
2019-02-04T02:32:26.535Z,1019.04
2019-02-04T02:33:26.449Z,1019.06
2019-02-04T02:34:26.369Z,1019.07
2019-02-04T02:35:26.273Z,1019.07
2019-02-04T02:36:26.174Z,1019.07
2019-02-04T02:37:26.107Z,1019.07
2019-02-04T02:38:26.000Z,1019.08
2019-02-04T02:39:25.913Z,1019.11
2019-02-04T02:40:25.970Z,1019.13
2019-02-04T02:41:25.740Z,1019.15
2019-02-04T02:42:25.651Z,1019.17
2019-02-04T02:43:25.562Z,1019.15
2019-02-04T02:44:25.474Z,1019.20
2019-02-04T02:45:25.488Z,1019.20
2019-02-04T02:46:25.286Z,1019.18
2019-02-04T02:47:25.208Z,1019.24
2019-02-04T02:48:25.282Z,1019.24
2019-02-04T02:49:25.026Z,1019.25
2019-02-04T02:50:24.938Z,1019.27
2019-02-04T02:51:24.869Z,1019.31
2019-02-04T02:52:24.750Z,1019.33
2019-02-04T02:53:24.664Z,1019.32
2019-02-04T02:54:24.576Z,1019.31
2019-02-04T02:55:24.489Z,1019.30
2019-02-04T02:56:24.403Z,1019.37
2019-02-04T02:57:24.314Z,1019.38
2019-02-04T02:58:24.227Z,1019.42
2019-02-04T02:59:24.140Z,1019.41
2019-02-04T03:00:24.039Z,1019.42
2019-02-04T03:01:23.963Z,1019.42
2019-02-04T03:02:23.864Z,1019.45
2019-02-04T03:03:23.777Z,1019.51
2019-02-04T03:04:23.702Z,1019.48
2019-02-04T03:05:23.602Z,1019.54
2019-02-04T03:06:23.514Z,1019.56
2019-02-04T03:07:23.428Z,1019.59
2019-02-04T03:08:23.333Z,1019.60
2019-02-04T03:09:23.240Z,1019.54
2019-02-04T03:10:23.153Z,1019.62
2019-02-04T03:11:23.065Z,1019.61
2019-02-04T03:12:22.979Z,1019.65
2019-02-04T03:13:22.902Z,1019.66
2019-02-04T03:14:22.804Z,1019.70
2019-02-04T03:15:22.717Z,1019.70
2019-02-04T03:16:22.617Z,1019.72
2019-02-04T03:17:22.529Z,1019.73
2019-02-04T03:18:22.446Z,1019.76
2019-02-04T03:19:22.364Z,1019.80
2019-02-04T03:20:22.378Z,1019.79
2019-02-04T03:21:22.180Z,1019.81
2019-02-04T03:22:22.097Z,1019.84
2019-02-04T03:23:22.305Z,1019.81
2019-02-04T03:24:21.907Z,1019.84
2019-02-04T03:25:21.815Z,1019.81
2019-02-04T03:26:21.729Z,1019.84
2019-02-04T03:27:21.656Z,1019.84
2019-02-04T03:28:21.817Z,1019.90
2019-02-04T03:29:21.469Z,1019.90
2019-02-04T03:30:21.385Z,1019.90
2019-02-04T03:31:21.291Z,1019.95
2019-02-04T03:32:21.195Z,1019.93
2019-02-04T03:33:21.106Z,1019.98
2019-02-04T03:34:21.018Z,1019.95
2019-02-04T03:35:20.931Z,1019.98
2019-02-04T03:36:20.844Z,1020.00
2019-02-04T03:37:20.756Z,1019.96
2019-02-04T03:38:20.967Z,1020.01
2019-02-04T03:39:20.572Z,1020.05
2019-02-04T03:40:20.506Z,1020.09
2019-02-04T03:41:20.393Z,1020.04
2019-02-04T03:42:20.307Z,1020.09
2019-02-04T03:43:20.217Z,1020.09
2019-02-04T03:44:20.131Z,1020.06
2019-02-04T03:45:20.043Z,1020.13
2019-02-04T03:46:19.945Z,1020.16
2019-02-04T03:47:19.858Z,1020.17
2019-02-04T03:48:19.773Z,1020.12
2019-02-04T03:49:19.685Z,1020.16
2019-02-04T03:50:19.593Z,1020.16
2019-02-04T03:51:19.507Z,1020.23
2019-02-04T03:52:19.420Z,1020.21
2019-02-04T03:53:19.333Z,1020.18
2019-02-04T03:54:19.243Z,1020.22
2019-02-04T03:55:19.145Z,1020.27
2019-02-04T03:56:19.057Z,1020.25
2019-02-04T03:57:18.972Z,1020.30
2019-02-04T03:58:18.882Z,1020.27
2019-02-04T03:59:18.809Z,1020.29
2019-02-04T04:00:18.708Z,1020.27
2019-02-04T04:01:18.633Z,1020.26
2019-02-04T04:02:18.534Z,1020.27
2019-02-04T04:03:18.432Z,1020.27
2019-02-04T04:04:18.346Z,1020.25
2019-02-04T04:05:18.264Z,1020.30
2019-02-04T04:06:18.170Z,1020.31
2019-02-04T04:07:18.083Z,1020.31
2019-02-04T04:08:18.000Z,1020.37
2019-02-04T04:09:17.909Z,1020.36
2019-02-04T04:10:17.835Z,1020.42
2019-02-04T04:11:17.734Z,1020.40
2019-02-04T04:12:17.635Z,1020.43
2019-02-04T04:13:17.548Z,1020.43
2019-02-04T04:14:17.461Z,1020.44
2019-02-04T04:15:17.372Z,1020.45
2019-02-04T04:16:17.284Z,1020.48
2019-02-04T04:17:17.198Z,1020.50
2019-02-04T04:18:17.098Z,1020.49
2019-02-04T04:19:17.009Z,1020.49
2019-02-04T04:20:16.922Z,1020.48
2019-02-04T04:21:16.835Z,1020.49
2019-02-04T04:22:16.746Z,1020.55
2019-02-04T04:23:16.910Z,1020.54
2019-02-04T04:24:16.573Z,1020.57
2019-02-04T04:25:16.486Z,1020.57
2019-02-04T04:26:16.399Z,1020.60
2019-02-04T04:27:16.298Z,1020.61
2019-02-04T04:28:16.222Z,1020.61
2019-02-04T04:29:16.124Z,1020.63
2019-02-04T04:30:16.036Z,1020.64
2019-02-04T04:31:15.963Z,1020.65
2019-02-04T04:32:15.860Z,1020.64
2019-02-04T04:33:15.773Z,1020.64
2019-02-04T04:34:15.675Z,1020.71
2019-02-04T04:35:15.589Z,1020.72
2019-02-04T04:36:15.498Z,1020.73
2019-02-04T04:37:15.425Z,1020.73
2019-02-04T04:38:15.325Z,1020.73
2019-02-04T04:39:15.236Z,1020.71
2019-02-04T04:40:15.172Z,1020.74
2019-02-04T04:41:15.062Z,1020.75
2019-02-04T04:42:14.963Z,1020.72
2019-02-04T04:43:14.877Z,1020.75
2019-02-04T04:44:14.788Z,1020.75
2019-02-04T04:45:14.699Z,1020.79
2019-02-04T04:46:14.612Z,1020.75
2019-02-04T04:47:14.527Z,1020.83
2019-02-04T04:48:14.443Z,1020.78
2019-02-04T04:49:14.352Z,1020.82
2019-02-04T04:50:14.251Z,1020.84
2019-02-04T04:51:14.163Z,1020.82
2019-02-04T04:52:14.075Z,1020.85
2019-02-04T04:53:13.988Z,1020.88
2019-02-04T04:54:13.905Z,1020.87
2019-02-04T04:55:13.824Z,1020.90
2019-02-04T04:56:13.725Z,1020.90
2019-02-04T04:57:13.639Z,1020.88
2019-02-04T04:58:13.542Z,1020.88
2019-02-04T04:59:13.451Z,1020.88
2019-02-04T05:00:13.367Z,1020.90
2019-02-04T05:01:13.276Z,1020.90
2019-02-04T05:02:13.189Z,1020.85
2019-02-04T05:03:13.101Z,1020.88
2019-02-04T05:04:13.015Z,1020.90
2019-02-04T05:05:12.940Z,1020.92
2019-02-04T05:06:12.839Z,1020.97
2019-02-04T05:07:12.741Z,1020.90
2019-02-04T05:08:12.651Z,1020.91
2019-02-04T05:09:12.566Z,1020.92
2019-02-04T05:10:12.476Z,1020.90
2019-02-04T05:11:12.494Z,1020.94
2019-02-04T05:12:12.301Z,1020.95
2019-02-04T05:13:12.215Z,1020.92
2019-02-04T05:14:12.116Z,1020.90
2019-02-04T05:15:12.040Z,1020.97
2019-02-04T05:16:12.050Z,1020.97
2019-02-04T05:17:11.852Z,1020.97
2019-02-04T05:18:12.065Z,1020.99
2019-02-04T05:19:11.677Z,1020.97
2019-02-04T05:20:11.590Z,1021.02
2019-02-04T05:21:11.503Z,1020.97
2019-02-04T05:22:11.406Z,1021.07
2019-02-04T05:23:11.316Z,1021.04
2019-02-04T05:24:11.241Z,1021.06
2019-02-04T05:25:11.141Z,1021.05
2019-02-04T05:26:11.054Z,1021.07
2019-02-04T05:27:10.966Z,1021.08
2019-02-04T05:28:10.878Z,1021.08
2019-02-04T05:29:10.792Z,1021.11
2019-02-04T05:30:10.706Z,1021.08
2019-02-04T05:31:10.606Z,1021.10
2019-02-04T05:32:10.522Z,1021.13
2019-02-04T05:33:10.429Z,1021.10
2019-02-04T05:34:10.343Z,1021.11
2019-02-04T05:35:10.254Z,1021.08
2019-02-04T05:36:10.168Z,1021.13
2019-02-04T05:37:10.092Z,1021.14
2019-02-04T05:38:10.243Z,1021.13
2019-02-04T05:39:09.893Z,1021.17
2019-02-04T05:40:09.804Z,1021.19
2019-02-04T05:41:09.732Z,1021.17
2019-02-04T05:42:09.662Z,1021.21
2019-02-04T05:43:09.543Z,1021.22
2019-02-04T05:44:09.485Z,1021.22
2019-02-04T05:45:09.370Z,1021.27
2019-02-04T05:46:09.268Z,1021.22
2019-02-04T05:47:09.194Z,1021.27
2019-02-04T05:48:09.094Z,1021.23
2019-02-04T05:49:09.006Z,1021.28
2019-02-04T05:50:08.920Z,1021.24
2019-02-04T05:51:08.831Z,1021.28
2019-02-04T05:52:08.744Z,1021.28
2019-02-04T05:53:08.645Z,1021.25
2019-02-04T05:54:08.556Z,1021.26
2019-02-04T05:55:08.469Z,1021.31
2019-02-04T05:56:08.381Z,1021.31
2019-02-04T05:57:08.295Z,1021.32
2019-02-04T05:58:08.207Z,1021.32
2019-02-04T05:59:08.120Z,1021.34
2019-02-04T06:00:08.032Z,1021.32
2019-02-04T06:01:07.933Z,1021.37
2019-02-04T06:02:09.432Z,1021.36
2019-02-04T06:03:07.757Z,1021.39
2019-02-04T06:04:07.681Z,1021.38
2019-02-04T06:05:07.583Z,1021.41
2019-02-04T06:06:07.495Z,1021.44
2019-02-04T06:07:07.408Z,1021.43
2019-02-04T06:08:07.311Z,1021.40
2019-02-04T06:09:07.221Z,1021.42
2019-02-04T06:10:07.134Z,1021.40
2019-02-04T06:11:07.051Z,1021.43
2019-02-04T06:12:06.960Z,1021.42
2019-02-04T06:13:06.871Z,1021.51
2019-02-04T06:14:06.783Z,1021.50
2019-02-04T06:15:06.687Z,1021.51
2019-02-04T06:16:06.600Z,1021.55
2019-02-04T06:17:06.508Z,1021.52
2019-02-04T06:18:06.422Z,1021.55
2019-02-04T06:19:06.334Z,1021.53
2019-02-04T06:20:06.246Z,1021.56
2019-02-04T06:21:06.172Z,1021.54
2019-02-04T06:22:06.072Z,1021.56
2019-02-04T06:23:06.221Z,1021.59
2019-02-04T06:24:05.884Z,1021.58
2019-02-04T06:25:05.805Z,1021.59
2019-02-04T06:26:05.709Z,1021.60
2019-02-04T06:27:05.622Z,1021.59
2019-02-04T06:28:05.536Z,1021.63
2019-02-04T06:29:05.448Z,1021.67
2019-02-04T06:30:05.350Z,1021.67
2019-02-04T06:31:05.260Z,1021.68
2019-02-04T06:32:05.174Z,1021.68
2019-02-04T06:33:05.085Z,1021.71
2019-02-04T06:34:05.013Z,1021.76
2019-02-04T06:35:04.911Z,1021.75
2019-02-04T06:36:04.824Z,1021.76
2019-02-04T06:37:04.735Z,1021.77
2019-02-04T06:38:04.637Z,1021.75
2019-02-04T06:39:04.548Z,1021.77
2019-02-04T06:40:04.461Z,1021.70
2019-02-04T06:41:04.375Z,1021.76
2019-02-04T06:42:04.286Z,1021.79
2019-02-04T06:43:04.205Z,1021.75
2019-02-04T06:44:04.113Z,1021.78
2019-02-04T06:45:04.012Z,1021.84
2019-02-04T06:46:03.925Z,1021.82
2019-02-04T06:47:03.837Z,1021.80
2019-02-04T06:48:03.750Z,1021.83
2019-02-04T06:49:11.950Z,1021.87
2019-02-04T06:50:03.576Z,1021.90
2019-02-04T06:51:03.487Z,1021.92
2019-02-04T06:52:03.390Z,1021.91
2019-02-04T06:53:03.301Z,1021.89
2019-02-04T06:54:03.213Z,1021.93
2019-02-04T06:55:03.126Z,1021.93
2019-02-04T06:56:03.123Z,1021.97
2019-02-04T06:57:02.959Z,1021.96
2019-02-04T06:58:03.113Z,1021.98
2019-02-04T06:59:02.776Z,1021.98
2019-02-04T07:00:02.676Z,1021.96
2019-02-04T07:01:02.591Z,1021.97
2019-02-04T07:02:02.502Z,1021.99
2019-02-04T07:03:02.413Z,1021.98
2019-02-04T07:04:02.326Z,1021.99
2019-02-04T07:05:02.238Z,1022.02
2019-02-04T07:06:02.154Z,1022.01
2019-02-04T07:07:02.064Z,1022.04
2019-02-04T07:08:01.964Z,1022.06
2019-02-04T07:09:01.876Z,1022.06
2019-02-04T07:10:01.789Z,1022.09
2019-02-04T07:11:01.702Z,1022.12
2019-02-04T07:12:01.614Z,1022.11
2019-02-04T07:13:01.529Z,1022.13
2019-02-04T07:14:01.455Z,1022.17
2019-02-04T07:15:01.355Z,1022.17
2019-02-04T07:16:01.253Z,1022.15
2019-02-04T07:17:01.165Z,1022.14
2019-02-04T07:18:01.822Z,1022.10
2019-02-04T07:19:00.989Z,1022.17
2019-02-04T07:20:00.905Z,1022.13
2019-02-04T07:21:00.814Z,1022.16
2019-02-04T07:22:00.728Z,1022.19
2019-02-04T07:23:00.640Z,1022.23
2019-02-04T07:24:00.558Z,1022.22
2019-02-04T07:25:00.454Z,1022.20
2019-02-04T07:26:00.368Z,1022.20
2019-02-04T07:27:00.279Z,1022.23
2019-02-04T07:28:00.191Z,1022.24
2019-02-04T07:29:00.106Z,1022.27
2019-02-04T07:30:00.017Z,1022.26
2019-02-04T07:30:59.928Z,1022.24
2019-02-04T07:31:59.841Z,1022.30
2019-02-04T07:32:59.841Z,1022.29
2019-02-04T07:33:59.654Z,1022.30
2019-02-04T07:34:59.567Z,1022.30
2019-02-04T07:35:59.479Z,1022.37
2019-02-04T07:36:59.392Z,1022.32
2019-02-04T07:37:59.305Z,1022.34
2019-02-04T07:38:59.216Z,1022.34
2019-02-04T07:39:59.130Z,1022.36
2019-02-04T07:40:59.031Z,1022.34
2019-02-04T07:41:58.942Z,1022.39
2019-02-04T07:42:58.857Z,1022.38
2019-02-04T07:43:58.767Z,1022.37
2019-02-04T07:44:58.680Z,1022.36
2019-02-04T07:45:58.593Z,1022.32
2019-02-04T07:46:58.506Z,1022.34
2019-02-04T07:47:58.421Z,1022.33
2019-02-04T07:48:58.331Z,1022.35
2019-02-04T07:49:58.232Z,1022.37
2019-02-04T07:50:58.146Z,1022.36
2019-02-04T07:51:58.057Z,1022.40
2019-02-04T07:52:57.974Z,1022.37
2019-02-04T07:53:57.882Z,1022.39
2019-02-04T07:54:57.795Z,1022.42
2019-02-04T07:55:57.710Z,1022.40
2019-02-04T07:56:57.620Z,1022.42
2019-02-04T07:57:58.039Z,1022.41
2019-02-04T07:58:57.445Z,1022.38
2019-02-04T07:59:57.361Z,1022.40
2019-02-04T08:00:57.258Z,1022.37
2019-02-04T08:01:57.171Z,1022.41
2019-02-04T08:02:57.082Z,1022.38
2019-02-04T08:03:56.994Z,1022.41
2019-02-04T08:04:56.909Z,1022.44
2019-02-04T08:05:56.819Z,1022.41
2019-02-04T08:06:56.733Z,1022.42
2019-02-04T08:07:56.644Z,1022.41
2019-02-04T08:08:56.558Z,1022.43
2019-02-04T08:09:56.483Z,1022.41
2019-02-04T08:10:56.386Z,1022.40
2019-02-04T08:11:56.286Z,1022.43
2019-02-04T08:13:01.624Z,1022.46
2019-02-04T08:13:56.108Z,1022.46
2019-02-04T08:14:56.024Z,1022.50
2019-02-04T08:15:55.945Z,1022.47
2019-02-04T08:16:55.846Z,1022.51
2019-02-04T08:17:55.759Z,1022.53
2019-02-04T08:18:55.684Z,1022.51
2019-02-04T08:19:55.584Z,1022.52
2019-02-04T08:20:55.496Z,1022.55
2019-02-04T08:21:55.412Z,1022.57
2019-02-04T08:22:55.325Z,1022.55
2019-02-04T08:23:55.237Z,1022.58
2019-02-04T08:24:55.147Z,1022.61
2019-02-04T08:25:55.054Z,1022.59
2019-02-04T08:26:54.972Z,1022.56
2019-02-04T08:27:54.876Z,1022.63
2019-02-04T08:28:54.796Z,1022.63
2019-02-04T08:29:54.711Z,1022.66
2019-02-04T08:30:54.611Z,1022.65
2019-02-04T08:31:54.557Z,1022.68
2019-02-04T08:32:54.436Z,1022.67
2019-02-04T08:33:54.350Z,1022.70
2019-02-04T08:34:54.267Z,1022.69
2019-02-04T08:35:54.174Z,1022.71
2019-02-04T08:36:54.097Z,1022.72
2019-02-04T08:37:54.151Z,1022.69
2019-02-04T08:38:53.924Z,1022.75
2019-02-04T08:39:53.836Z,1022.68
2019-02-04T08:40:53.748Z,1022.72
2019-02-04T08:41:53.665Z,1022.67
2019-02-04T08:42:53.593Z,1022.71
2019-02-04T08:43:53.486Z,1022.68
2019-02-04T08:44:53.398Z,1022.70
2019-02-04T08:45:53.312Z,1022.69
2019-02-04T08:46:53.225Z,1022.71
2019-02-04T08:47:53.137Z,1022.69
2019-02-04T08:48:53.056Z,1022.68
2019-02-04T08:49:58.297Z,1022.71
2019-02-04T08:50:52.877Z,1022.71
2019-02-04T08:51:52.788Z,1022.71
2019-02-04T08:52:52.699Z,1022.70
2019-02-04T08:53:52.613Z,1022.70
2019-02-04T08:54:52.524Z,1022.68
2019-02-04T08:55:52.437Z,1022.70
2019-02-04T08:56:52.351Z,1022.68
2019-02-04T08:57:52.378Z,1022.68
2019-02-04T08:58:52.188Z,1022.70
2019-02-04T08:59:52.101Z,1022.72
2019-02-04T09:00:52.013Z,1022.70
2019-02-04T09:01:51.925Z,1022.70
2019-02-04T09:02:51.844Z,1022.72
2019-02-04T09:03:51.750Z,1022.72
2019-02-04T09:04:51.664Z,1022.75
2019-02-04T09:05:51.577Z,1022.73
2019-02-04T09:06:51.489Z,1022.74
2019-02-04T09:07:51.402Z,1022.75
2019-02-04T09:08:51.315Z,1022.74
2019-02-04T09:09:51.227Z,1022.78
2019-02-04T09:10:51.151Z,1022.78
2019-02-04T09:11:51.064Z,1022.82
2019-02-04T09:12:50.976Z,1022.88
2019-02-04T09:13:50.889Z,1022.84
2019-02-04T09:14:50.816Z,1022.82
2019-02-04T09:15:50.715Z,1022.76
2019-02-04T09:16:50.627Z,1022.80
2019-02-04T09:17:50.542Z,1022.80
2019-02-04T09:18:50.453Z,1022.81
2019-02-04T09:19:50.377Z,1022.82
2019-02-04T09:20:50.290Z,1022.86
2019-02-04T09:21:50.215Z,1022.90
2019-02-04T09:22:50.115Z,1022.87
2019-02-04T09:23:50.027Z,1022.87
2019-02-04T09:24:49.947Z,1022.81
2019-02-04T09:25:49.865Z,1022.83
2019-02-04T09:26:49.778Z,1022.81
2019-02-04T09:27:49.691Z,1022.81
2019-02-04T09:28:49.637Z,1022.77
2019-02-04T09:29:49.517Z,1022.72
2019-02-04T09:30:49.429Z,1022.69
2019-02-04T09:31:49.354Z,1022.74
2019-02-04T09:32:49.268Z,1022.71
2019-02-04T09:33:49.182Z,1022.72
2019-02-04T09:34:49.093Z,1022.72
2019-02-04T09:35:49.017Z,1022.77
2019-02-04T09:36:48.928Z,1022.79
2019-02-04T09:37:48.843Z,1022.79
2019-02-04T09:38:48.756Z,1022.83
2019-02-04T09:39:48.667Z,1022.82
2019-02-04T09:40:48.584Z,1022.79
2019-02-04T09:41:48.496Z,1022.80
2019-02-04T09:42:48.408Z,1022.80
2019-02-04T09:43:48.334Z,1022.80
2019-02-04T09:44:48.242Z,1022.83
2019-02-04T09:45:48.155Z,1022.79
2019-02-04T09:46:48.102Z,1022.75
2019-02-04T09:47:47.980Z,1022.71
2019-02-04T09:48:47.904Z,1022.69
2019-02-04T09:49:47.806Z,1022.69
2019-02-04T09:50:47.743Z,1022.74
2019-02-04T09:51:47.644Z,1022.75
2019-02-04T09:52:47.556Z,1022.70
2019-02-04T09:53:47.471Z,1022.75
2019-02-04T09:54:47.381Z,1022.77
2019-02-04T09:55:47.297Z,1022.75
2019-02-04T09:56:47.209Z,1022.73
2019-02-04T09:57:47.119Z,1022.71
2019-02-04T09:58:47.047Z,1022.73
2019-02-04T09:59:46.986Z,1022.72
2019-02-04T10:00:46.870Z,1022.78
2019-02-04T10:01:46.797Z,1022.78
2019-02-04T10:02:46.696Z,1022.80
2019-02-04T10:03:46.610Z,1022.76
2019-02-04T10:04:46.523Z,1022.79
2019-02-04T10:05:46.433Z,1022.75
2019-02-04T10:06:46.357Z,1022.77
2019-02-04T10:07:46.271Z,1022.80
2019-02-04T10:08:46.182Z,1022.75
2019-02-04T10:09:46.095Z,1022.76
2019-02-04T10:10:46.009Z,1022.76
2019-02-04T10:11:45.921Z,1022.78
2019-02-04T10:12:45.832Z,1022.75
2019-02-04T10:13:45.746Z,1022.76
2019-02-04T10:14:45.658Z,1022.78
2019-02-04T10:15:45.966Z,1022.79
2019-02-04T10:16:45.496Z,1022.76
2019-02-04T10:17:45.422Z,1022.80
2019-02-04T10:18:45.328Z,1022.80
2019-02-04T10:19:45.237Z,1022.79
2019-02-04T10:20:45.259Z,1022.78
2019-02-04T10:21:45.060Z,1022.77
2019-02-04T10:22:44.983Z,1022.80
2019-02-04T10:23:44.897Z,1022.81
2019-02-04T10:24:44.822Z,1022.82
2019-02-04T10:25:44.748Z,1022.79
2019-02-04T10:26:44.652Z,1022.80
2019-02-04T10:27:44.550Z,1022.78
2019-02-04T10:28:44.459Z,1022.78
2019-02-04T10:29:44.387Z,1022.78
2019-02-04T10:30:44.287Z,1022.77
2019-02-04T10:31:44.232Z,1022.77
2019-02-04T10:32:44.396Z,1022.78
2019-02-04T10:33:44.034Z,1022.77
2019-02-04T10:34:43.977Z,1022.79
2019-02-04T10:35:43.859Z,1022.79
2019-02-04T10:36:43.774Z,1022.81
2019-02-04T10:37:43.723Z,1022.83
2019-02-04T10:38:43.658Z,1022.82
2019-02-04T10:39:43.544Z,1022.85
2019-02-04T10:40:43.435Z,1022.83
2019-02-04T10:41:43.373Z,1022.82
2019-02-04T10:42:43.274Z,1022.79
2019-02-04T10:43:43.251Z,1022.80
2019-02-04T10:44:43.140Z,1022.76
2019-02-04T10:45:43.011Z,1022.79
2019-02-04T10:46:42.931Z,1022.76
2019-02-04T10:47:42.862Z,1022.76
2019-02-04T10:48:42.792Z,1022.73
2019-02-04T10:49:42.662Z,1022.72
2019-02-04T10:50:46.884Z,1022.73
2019-02-04T10:51:42.521Z,1022.69
2019-02-04T10:52:42.412Z,1022.71
2019-02-04T10:53:42.343Z,1022.73
2019-02-04T10:54:42.249Z,1022.75
2019-02-04T10:55:42.183Z,1022.77
2019-02-04T10:56:42.079Z,1022.78
2019-02-04T10:57:42.024Z,1022.74
2019-02-04T10:58:41.912Z,1022.75
2019-02-04T10:59:41.823Z,1022.79
2019-02-04T11:00:41.740Z,1022.78
2019-02-04T11:01:41.779Z,1022.78
2019-02-04T11:02:41.563Z,1022.78
2019-02-04T11:03:41.517Z,1022.79
2019-02-04T11:04:41.387Z,1022.80
2019-02-04T11:05:41.301Z,1022.76
2019-02-04T11:06:41.223Z,1022.76
2019-02-04T11:07:41.234Z,1022.75
2019-02-04T11:08:41.056Z,1022.74
2019-02-04T11:09:41.006Z,1022.67
2019-02-04T11:10:40.923Z,1022.70
2019-02-04T11:11:40.788Z,1022.68
2019-02-04T11:12:40.715Z,1022.68
2019-02-04T11:13:40.756Z,1022.68
2019-02-04T11:14:40.546Z,1022.70
2019-02-04T11:15:40.454Z,1022.65
2019-02-04T11:16:40.365Z,1022.67
2019-02-04T11:17:40.285Z,1022.66
2019-02-04T11:18:40.207Z,1022.66
2019-02-04T11:19:40.168Z,1022.68
2019-02-04T11:20:40.028Z,1022.69
2019-02-04T11:21:39.974Z,1022.62
2019-02-04T11:22:39.910Z,1022.68
2019-02-04T11:23:39.798Z,1022.65
2019-02-04T11:24:39.692Z,1022.68
2019-02-04T11:25:39.638Z,1022.63
2019-02-04T11:26:39.561Z,1022.65
2019-02-04T11:27:39.444Z,1022.67
2019-02-04T11:28:39.474Z,1022.66
2019-02-04T11:29:39.354Z,1022.66
2019-02-04T11:30:39.192Z,1022.67
2019-02-04T11:31:39.124Z,1022.71
2019-02-04T11:32:39.016Z,1022.72
2019-02-04T11:33:38.930Z,1022.71
2019-02-04T11:34:38.853Z,1022.75
2019-02-04T11:35:38.766Z,1022.77
2019-02-04T11:36:38.726Z,1022.74
2019-02-04T11:37:38.639Z,1022.76
2019-02-04T11:38:38.516Z,1022.79
2019-02-04T11:39:38.433Z,1022.84
2019-02-04T11:40:38.365Z,1022.86
2019-02-04T11:41:38.278Z,1022.79
2019-02-04T11:42:38.215Z,1022.84
2019-02-04T11:43:38.130Z,1022.86
2019-02-04T11:44:38.025Z,1022.84
2019-02-04T11:45:37.932Z,1022.86
2019-02-04T11:46:37.842Z,1022.85
2019-02-04T11:47:37.811Z,1022.87
2019-02-04T11:48:37.686Z,1022.86
2019-02-04T11:49:37.605Z,1022.87
2019-02-04T11:50:37.518Z,1022.90
2019-02-04T11:51:37.432Z,1022.86
2019-02-04T11:52:37.344Z,1022.80
2019-02-04T11:53:37.268Z,1022.79
2019-02-04T11:54:37.182Z,1022.76
2019-02-04T11:55:37.106Z,1022.74
2019-02-04T11:56:37.035Z,1022.70
2019-02-04T11:57:36.932Z,1022.73
2019-02-04T11:58:36.862Z,1022.76
2019-02-04T11:59:36.768Z,1022.77
2019-02-04T12:00:36.706Z,1022.82
2019-02-04T12:01:36.607Z,1022.82
2019-02-04T12:02:36.533Z,1022.79
2019-02-04T12:03:36.444Z,1022.82
2019-02-04T12:04:36.369Z,1022.83